sensor_id;sensor_type;location;lat;lon;timestamp;P1;durP1;ratioP1;P2;durP2;ratioP2
10315;SDS011;5203;48.976;8.306;2022-12-29T00:01:47;3.63;;;2.53;;
10315;SDS011;5203;48.976;8.306;2022-12-29T00:04:14;2.97;;;2.43;;
10315;SDS011;5203;48.976;8.306;2022-12-29T00:06:40;4.73;;;2.60;;
10315;SDS011;5203;48.976;8.306;2022-12-29T00:09:07;4.90;;;2.37;;
10315;SDS011;5203;48.976;8.306;2022-12-29T00:11:33;2.60;;;2.10;;
10315;SDS011;5203;48.976;8.306;2022-12-29T00:13:58;4.90;;;2.40;;
10315;SDS011;5203;48.976;8.306;2022-12-29T00:16:44;2.70;;;2.33;;
10315;SDS011;5203;48.976;8.306;2022-12-29T00:19:11;4.77;;;2.30;;
10315;SDS011;5203;48.976;8.306;2022-12-29T00:21:55;3.03;;;2.50;;
10315;SDS011;5203;48.976;8.306;2022-12-29T00:24:40;3.17;;;2.50;;
10315;SDS011;5203;48.976;8.306;2022-12-29T00:27:36;2.57;;;2.20;;
10315;SDS011;5203;48.976;8.306;2022-12-29T00:30:21;2.70;;;2.50;;
10315;SDS011;5203;48.976;8.306;2022-12-29T00:33:16;2.60;;;2.40;;
10315;SDS011;5203;48.976;8.306;2022-12-29T00:36:13;2.53;;;2.33;;
10315;SDS011;5203;48.976;8.306;2022-12-29T00:38:50;3.47;;;2.67;;
10315;SDS011;5203;48.976;8.306;2022-12-29T00:41:43;2.93;;;2.47;;
10315;SDS011;5203;48.976;8.306;2022-12-29T00:44:27;2.77;;;2.40;;
10315;SDS011;5203;48.976;8.306;2022-12-29T00:46:52;2.63;;;2.27;;
10315;SDS011;5203;48.976;8.306;2022-12-29T00:49:18;2.70;;;2.37;;
10315;SDS011;5203;48.976;8.306;2022-12-29T00:52:12;2.97;;;2.47;;
10315;SDS011;5203;48.976;8.306;2022-12-29T00:54:39;3.10;;;2.60;;
10315;SDS011;5203;48.976;8.306;2022-12-29T00:57:06;2.60;;;2.40;;
10315;SDS011;5203;48.976;8.306;2022-12-29T00:59:37;2.80;;;2.50;;
10315;SDS011;5203;48.976;8.306;2022-12-29T01:02:03;3.17;;;2.73;;
10315;SDS011;5203;48.976;8.306;2022-12-29T01:04:29;3.97;;;2.70;;
10315;SDS011;5203;48.976;8.306;2022-12-29T01:06:55;2.90;;;2.60;;
10315;SDS011;5203;48.976;8.306;2022-12-29T01:09:21;3.23;;;2.30;;
10315;SDS011;5203;48.976;8.306;2022-12-29T01:12:05;2.53;;;2.33;;
10315;SDS011;5203;48.976;8.306;2022-12-29T01:14:32;2.57;;;2.37;;
10315;SDS011;5203;48.976;8.306;2022-12-29T01:16:58;3.90;;;2.43;;
10315;SDS011;5203;48.976;8.306;2022-12-29T01:19:24;3.73;;;2.73;;
10315;SDS011;5203;48.976;8.306;2022-12-29T01:21:50;3.43;;;2.43;;
10315;SDS011;5203;48.976;8.306;2022-12-29T01:24:17;3.13;;;2.80;;
10315;SDS011;5203;48.976;8.306;2022-12-29T01:26:44;4.77;;;2.70;;
10315;SDS011;5203;48.976;8.306;2022-12-29T01:29:10;3.70;;;2.80;;
10315;SDS011;5203;48.976;8.306;2022-12-29T01:31:36;4.30;;;2.60;;
10315;SDS011;5203;48.976;8.306;2022-12-29T01:34:02;4.93;;;2.43;;
10315;SDS011;5203;48.976;8.306;2022-12-29T01:36:28;3.63;;;2.67;;
10315;SDS011;5203;48.976;8.306;2022-12-29T01:38:55;2.93;;;2.50;;
10315;SDS011;5203;48.976;8.306;2022-12-29T01:41:21;2.77;;;2.57;;
10315;SDS011;5203;48.976;8.306;2022-12-29T01:43:47;2.93;;;2.53;;
10315;SDS011;5203;48.976;8.306;2022-12-29T01:48:54;3.70;;;2.43;;
10315;SDS011;5203;48.976;8.306;2022-12-29T01:51:25;4.37;;;2.67;;
10315;SDS011;5203;48.976;8.306;2022-12-29T01:53:53;2.93;;;2.63;;
10315;SDS011;5203;48.976;8.306;2022-12-29T01:56:22;2.83;;;2.53;;
10315;SDS011;5203;48.976;8.306;2022-12-29T01:58:49;3.80;;;2.73;;
10315;SDS011;5203;48.976;8.306;2022-12-29T02:01:40;4.67;;;2.67;;
10315;SDS011;5203;48.976;8.306;2022-12-29T02:04:06;3.87;;;2.47;;
10315;SDS011;5203;48.976;8.306;2022-12-29T02:06:36;2.47;;;2.27;;
10315;SDS011;5203;48.976;8.306;2022-12-29T02:09:09;3.67;;;2.90;;
10315;SDS011;5203;48.976;8.306;2022-12-29T02:11:34;3.13;;;2.87;;
10315;SDS011;5203;48.976;8.306;2022-12-29T02:14:01;4.50;;;2.73;;
10315;SDS011;5203;48.976;8.306;2022-12-29T02:16:33;3.63;;;2.60;;
10315;SDS011;5203;48.976;8.306;2022-12-29T02:27:24;3.77;;;2.50;;
10315;SDS011;5203;48.976;8.306;2022-12-29T02:41:14;3.73;;;2.30;;
10315;SDS011;5203;48.976;8.306;2022-12-29T02:43:50;4.03;;;2.40;;
10315;SDS011;5203;48.976;8.306;2022-12-29T02:48:58;4.47;;;2.43;;
10315;SDS011;5203;48.976;8.306;2022-12-29T02:51:43;3.27;;;2.60;;
10315;SDS011;5203;48.976;8.306;2022-12-29T02:54:18;2.97;;;2.10;;
10315;SDS011;5203;48.976;8.306;2022-12-29T02:57:08;2.10;;;1.93;;
10315;SDS011;5203;48.976;8.306;2022-12-29T02:59:41;2.67;;;2.23;;
10315;SDS011;5203;48.976;8.306;2022-12-29T03:07:18;2.60;;;2.40;;
10315;SDS011;5203;48.976;8.306;2022-12-29T03:12:42;2.40;;;2.20;;
10315;SDS011;5203;48.976;8.306;2022-12-29T03:15:43;3.23;;;2.20;;
10315;SDS011;5203;48.976;8.306;2022-12-29T03:21:08;1.90;;;1.80;;
10315;SDS011;5203;48.976;8.306;2022-12-29T03:24:12;3.37;;;2.10;;
10315;SDS011;5203;48.976;8.306;2022-12-29T03:26:38;2.40;;;2.20;;
10315;SDS011;5203;48.976;8.306;2022-12-29T03:29:06;2.30;;;2.10;;
10315;SDS011;5203;48.976;8.306;2022-12-29T03:31:34;2.97;;;1.97;;
10315;SDS011;5203;48.976;8.306;2022-12-29T03:34:01;2.23;;;2.00;;
10315;SDS011;5203;48.976;8.306;2022-12-29T03:36:32;3.50;;;2.50;;
10315;SDS011;5203;48.976;8.306;2022-12-29T03:39:08;2.63;;;2.07;;
10315;SDS011;5203;48.976;8.306;2022-12-29T03:41:36;2.27;;;2.13;;
10315;SDS011;5203;48.976;8.306;2022-12-29T03:44:07;3.50;;;2.20;;
10315;SDS011;5203;48.976;8.306;2022-12-29T03:46:34;3.00;;;2.00;;
10315;SDS011;5203;48.976;8.306;2022-12-29T03:49:00;2.53;;;2.13;;
10315;SDS011;5203;48.976;8.306;2022-12-29T03:51:26;2.40;;;2.20;;
10315;SDS011;5203;48.976;8.306;2022-12-29T03:53:51;2.53;;;2.33;;
10315;SDS011;5203;48.976;8.306;2022-12-29T03:56:17;2.50;;;2.30;;
10315;SDS011;5203;48.976;8.306;2022-12-29T03:58:42;1.97;;;1.87;;
10315;SDS011;5203;48.976;8.306;2022-12-29T04:01:08;3.20;;;2.37;;
10315;SDS011;5203;48.976;8.306;2022-12-29T04:03:34;2.37;;;2.17;;
10315;SDS011;5203;48.976;8.306;2022-12-29T04:05:59;2.47;;;2.10;;
10315;SDS011;5203;48.976;8.306;2022-12-29T04:08:25;2.33;;;2.13;;
10315;SDS011;5203;48.976;8.306;2022-12-29T04:10:51;2.30;;;2.10;;
10315;SDS011;5203;48.976;8.306;2022-12-29T04:13:16;2.50;;;2.30;;
10315;SDS011;5203;48.976;8.306;2022-12-29T04:15:43;2.60;;;2.00;;
10315;SDS011;5203;48.976;8.306;2022-12-29T04:18:10;3.23;;;2.27;;
10315;SDS011;5203;48.976;8.306;2022-12-29T04:20:36;2.20;;;2.00;;
10315;SDS011;5203;48.976;8.306;2022-12-29T04:23:20;2.63;;;2.30;;
10315;SDS011;5203;48.976;8.306;2022-12-29T04:25:46;2.50;;;2.20;;
10315;SDS011;5203;48.976;8.306;2022-12-29T04:28:12;2.83;;;2.20;;
10315;SDS011;5203;48.976;8.306;2022-12-29T04:30:38;2.40;;;2.20;;
10315;SDS011;5203;48.976;8.306;2022-12-29T04:33:04;3.90;;;2.40;;
10315;SDS011;5203;48.976;8.306;2022-12-29T04:35:30;2.23;;;2.10;;
10315;SDS011;5203;48.976;8.306;2022-12-29T04:37:55;2.47;;;2.20;;
10315;SDS011;5203;48.976;8.306;2022-12-29T04:40:21;2.20;;;2.10;;
10315;SDS011;5203;48.976;8.306;2022-12-29T04:42:48;2.50;;;2.30;;
10315;SDS011;5203;48.976;8.306;2022-12-29T04:45:14;2.47;;;2.10;;
10315;SDS011;5203;48.976;8.306;2022-12-29T04:47:40;3.13;;;2.43;;
10315;SDS011;5203;48.976;8.306;2022-12-29T04:50:05;4.13;;;2.40;;
10315;SDS011;5203;48.976;8.306;2022-12-29T04:52:32;2.60;;;2.30;;
10315;SDS011;5203;48.976;8.306;2022-12-29T04:54:58;2.53;;;2.33;;
10315;SDS011;5203;48.976;8.306;2022-12-29T04:57:23;2.97;;;2.33;;
10315;SDS011;5203;48.976;8.306;2022-12-29T04:59:49;3.03;;;2.23;;
10315;SDS011;5203;48.976;8.306;2022-12-29T05:02:15;2.80;;;2.20;;
10315;SDS011;5203;48.976;8.306;2022-12-29T05:04:44;3.77;;;2.63;;
10315;SDS011;5203;48.976;8.306;2022-12-29T05:07:11;3.10;;;2.20;;
10315;SDS011;5203;48.976;8.306;2022-12-29T05:09:37;2.80;;;2.23;;
10315;SDS011;5203;48.976;8.306;2022-12-29T05:12:02;3.33;;;2.60;;
10315;SDS011;5203;48.976;8.306;2022-12-29T05:14:28;3.00;;;2.70;;
10315;SDS011;5203;48.976;8.306;2022-12-29T05:16:54;4.03;;;2.30;;
10315;SDS011;5203;48.976;8.306;2022-12-29T05:19:19;3.33;;;2.60;;
10315;SDS011;5203;48.976;8.306;2022-12-29T05:21:45;2.90;;;2.60;;
10315;SDS011;5203;48.976;8.306;2022-12-29T05:24:11;4.77;;;2.90;;
10315;SDS011;5203;48.976;8.306;2022-12-29T05:26:37;4.47;;;2.80;;
10315;SDS011;5203;48.976;8.306;2022-12-29T05:29:02;4.10;;;2.90;;
10315;SDS011;5203;48.976;8.306;2022-12-29T05:31:28;5.77;;;3.10;;
10315;SDS011;5203;48.976;8.306;2022-12-29T05:33:54;4.73;;;2.80;;
10315;SDS011;5203;48.976;8.306;2022-12-29T05:36:19;3.10;;;2.67;;
10315;SDS011;5203;48.976;8.306;2022-12-29T05:38:45;2.77;;;2.50;;
10315;SDS011;5203;48.976;8.306;2022-12-29T05:41:11;3.93;;;2.77;;
10315;SDS011;5203;48.976;8.306;2022-12-29T05:43:36;4.03;;;2.90;;
10315;SDS011;5203;48.976;8.306;2022-12-29T05:46:03;4.77;;;2.90;;
10315;SDS011;5203;48.976;8.306;2022-12-29T05:48:28;3.67;;;2.70;;
10315;SDS011;5203;48.976;8.306;2022-12-29T05:50:54;3.90;;;2.70;;
10315;SDS011;5203;48.976;8.306;2022-12-29T05:53:20;3.17;;;2.87;;
10315;SDS011;5203;48.976;8.306;2022-12-29T05:55:46;3.07;;;2.47;;
10315;SDS011;5203;48.976;8.306;2022-12-29T05:58:12;2.87;;;2.40;;
10315;SDS011;5203;48.976;8.306;2022-12-29T06:00:38;3.17;;;2.70;;
10315;SDS011;5203;48.976;8.306;2022-12-29T06:03:04;3.07;;;2.77;;
10315;SDS011;5203;48.976;8.306;2022-12-29T06:05:30;3.27;;;2.87;;
10315;SDS011;5203;48.976;8.306;2022-12-29T06:07:56;4.90;;;2.90;;
10315;SDS011;5203;48.976;8.306;2022-12-29T06:10:21;2.50;;;2.30;;
10315;SDS011;5203;48.976;8.306;2022-12-29T06:12:47;2.63;;;2.43;;
10315;SDS011;5203;48.976;8.306;2022-12-29T06:15:13;6.73;;;2.50;;
10315;SDS011;5203;48.976;8.306;2022-12-29T06:17:39;3.13;;;2.93;;
10315;SDS011;5203;48.976;8.306;2022-12-29T06:20:06;3.27;;;2.90;;
10315;SDS011;5203;48.976;8.306;2022-12-29T06:22:32;3.57;;;2.97;;
10315;SDS011;5203;48.976;8.306;2022-12-29T06:24:58;2.97;;;2.60;;
10315;SDS011;5203;48.976;8.306;2022-12-29T06:27:24;2.83;;;2.63;;
10315;SDS011;5203;48.976;8.306;2022-12-29T06:29:50;3.00;;;2.70;;
10315;SDS011;5203;48.976;8.306;2022-12-29T06:32:15;4.73;;;2.50;;
10315;SDS011;5203;48.976;8.306;2022-12-29T06:34:41;3.43;;;2.90;;
10315;SDS011;5203;48.976;8.306;2022-12-29T06:37:07;3.80;;;3.07;;
10315;SDS011;5203;48.976;8.306;2022-12-29T06:39:33;3.20;;;2.90;;
10315;SDS011;5203;48.976;8.306;2022-12-29T06:41:58;3.80;;;2.70;;
10315;SDS011;5203;48.976;8.306;2022-12-29T06:44:24;3.93;;;2.90;;
10315;SDS011;5203;48.976;8.306;2022-12-29T06:46:49;2.60;;;2.40;;
10315;SDS011;5203;48.976;8.306;2022-12-29T06:49:15;4.63;;;2.63;;
10315;SDS011;5203;48.976;8.306;2022-12-29T06:51:41;2.60;;;2.40;;
10315;SDS011;5203;48.976;8.306;2022-12-29T06:54:07;3.07;;;2.57;;
10315;SDS011;5203;48.976;8.306;2022-12-29T06:56:33;3.90;;;2.93;;
10315;SDS011;5203;48.976;8.306;2022-12-29T06:58:59;2.70;;;2.50;;
10315;SDS011;5203;48.976;8.306;2022-12-29T07:01:28;4.27;;;2.77;;
10315;SDS011;5203;48.976;8.306;2022-12-29T07:03:54;4.17;;;2.90;;
10315;SDS011;5203;48.976;8.306;2022-12-29T07:06:20;3.20;;;2.77;;
10315;SDS011;5203;48.976;8.306;2022-12-29T07:08:46;3.30;;;3.00;;
10315;SDS011;5203;48.976;8.306;2022-12-29T07:11:11;4.30;;;2.87;;
10315;SDS011;5203;48.976;8.306;2022-12-29T07:13:37;3.10;;;2.80;;
10315;SDS011;5203;48.976;8.306;2022-12-29T07:16:07;3.93;;;2.90;;
10315;SDS011;5203;48.976;8.306;2022-12-29T07:18:33;4.23;;;3.07;;
10315;SDS011;5203;48.976;8.306;2022-12-29T07:20:59;3.23;;;2.90;;
10315;SDS011;5203;48.976;8.306;2022-12-29T07:23:25;3.43;;;2.67;;
10315;SDS011;5203;48.976;8.306;2022-12-29T07:25:58;3.23;;;2.67;;
10315;SDS011;5203;48.976;8.306;2022-12-29T07:28:25;3.10;;;2.80;;
10315;SDS011;5203;48.976;8.306;2022-12-29T07:30:50;4.30;;;2.97;;
10315;SDS011;5203;48.976;8.306;2022-12-29T07:33:16;3.30;;;2.70;;
10315;SDS011;5203;48.976;8.306;2022-12-29T07:35:42;3.47;;;2.70;;
10315;SDS011;5203;48.976;8.306;2022-12-29T07:38:07;3.00;;;2.70;;
10315;SDS011;5203;48.976;8.306;2022-12-29T07:40:33;5.33;;;3.27;;
10315;SDS011;5203;48.976;8.306;2022-12-29T07:42:59;2.87;;;2.67;;
10315;SDS011;5203;48.976;8.306;2022-12-29T07:45:24;3.90;;;2.60;;
10315;SDS011;5203;48.976;8.306;2022-12-29T07:47:50;4.33;;;2.90;;
10315;SDS011;5203;48.976;8.306;2022-12-29T07:50:16;3.27;;;2.97;;
10315;SDS011;5203;48.976;8.306;2022-12-29T07:52:41;4.50;;;2.80;;
10315;SDS011;5203;48.976;8.306;2022-12-29T07:55:08;3.40;;;3.10;;
10315;SDS011;5203;48.976;8.306;2022-12-29T07:57:34;4.00;;;2.90;;
10315;SDS011;5203;48.976;8.306;2022-12-29T07:59:59;3.27;;;2.63;;
10315;SDS011;5203;48.976;8.306;2022-12-29T08:02:25;3.70;;;2.97;;
10315;SDS011;5203;48.976;8.306;2022-12-29T08:04:51;3.77;;;3.03;;
10315;SDS011;5203;48.976;8.306;2022-12-29T08:07:17;4.40;;;2.80;;
10315;SDS011;5203;48.976;8.306;2022-12-29T08:09:42;3.67;;;2.67;;
10315;SDS011;5203;48.976;8.306;2022-12-29T08:12:09;3.03;;;2.80;;
10315;SDS011;5203;48.976;8.306;2022-12-29T08:14:35;3.00;;;2.67;;
10315;SDS011;5203;48.976;8.306;2022-12-29T08:17:01;2.73;;;2.53;;
10315;SDS011;5203;48.976;8.306;2022-12-29T08:19:27;5.53;;;2.70;;
10315;SDS011;5203;48.976;8.306;2022-12-29T08:21:53;4.10;;;2.93;;
10315;SDS011;5203;48.976;8.306;2022-12-29T08:24:18;4.40;;;2.80;;
10315;SDS011;5203;48.976;8.306;2022-12-29T08:26:44;4.23;;;3.03;;
10315;SDS011;5203;48.976;8.306;2022-12-29T08:29:10;3.47;;;3.00;;
10315;SDS011;5203;48.976;8.306;2022-12-29T08:31:36;2.70;;;2.50;;
10315;SDS011;5203;48.976;8.306;2022-12-29T08:34:02;2.83;;;2.63;;
10315;SDS011;5203;48.976;8.306;2022-12-29T08:36:29;2.83;;;2.60;;
10315;SDS011;5203;48.976;8.306;2022-12-29T08:38:55;2.87;;;2.57;;
10315;SDS011;5203;48.976;8.306;2022-12-29T08:41:21;3.03;;;2.70;;
10315;SDS011;5203;48.976;8.306;2022-12-29T08:43:47;4.17;;;2.70;;
10315;SDS011;5203;48.976;8.306;2022-12-29T08:46:14;3.67;;;2.90;;
10315;SDS011;5203;48.976;8.306;2022-12-29T08:48:40;3.07;;;2.73;;
10315;SDS011;5203;48.976;8.306;2022-12-29T08:51:06;3.70;;;2.90;;
10315;SDS011;5203;48.976;8.306;2022-12-29T08:53:32;3.50;;;2.63;;
10315;SDS011;5203;48.976;8.306;2022-12-29T08:55:59;2.80;;;2.60;;
10315;SDS011;5203;48.976;8.306;2022-12-29T08:58:26;3.57;;;2.70;;
10315;SDS011;5203;48.976;8.306;2022-12-29T09:00:53;3.40;;;2.80;;
10315;SDS011;5203;48.976;8.306;2022-12-29T09:03:20;3.50;;;2.60;;
10315;SDS011;5203;48.976;8.306;2022-12-29T09:05:47;4.47;;;2.70;;
10315;SDS011;5203;48.976;8.306;2022-12-29T09:08:14;7.03;;;2.63;;
10315;SDS011;5203;48.976;8.306;2022-12-29T09:10:40;3.87;;;2.97;;
10315;SDS011;5203;48.976;8.306;2022-12-29T09:13:05;3.87;;;2.70;;
10315;SDS011;5203;48.976;8.306;2022-12-29T09:15:31;5.50;;;2.90;;
10315;SDS011;5203;48.976;8.306;2022-12-29T09:17:57;7.20;;;4.00;;
10315;SDS011;5203;48.976;8.306;2022-12-29T09:20:23;2.97;;;2.70;;
10315;SDS011;5203;48.976;8.306;2022-12-29T09:22:49;3.17;;;2.87;;
10315;SDS011;5203;48.976;8.306;2022-12-29T09:25:15;2.90;;;2.47;;
10315;SDS011;5203;48.976;8.306;2022-12-29T09:27:42;3.40;;;2.63;;
10315;SDS011;5203;48.976;8.306;2022-12-29T09:30:09;4.37;;;2.80;;
10315;SDS011;5203;48.976;8.306;2022-12-29T09:32:36;3.30;;;2.50;;
10315;SDS011;5203;48.976;8.306;2022-12-29T09:35:02;4.23;;;2.70;;
10315;SDS011;5203;48.976;8.306;2022-12-29T09:37:28;3.13;;;2.40;;
10315;SDS011;5203;48.976;8.306;2022-12-29T09:39:54;2.90;;;2.43;;
10315;SDS011;5203;48.976;8.306;2022-12-29T09:47:28;3.17;;;2.70;;
10315;SDS011;5203;48.976;8.306;2022-12-29T09:52:48;2.87;;;2.67;;
10315;SDS011;5203;48.976;8.306;2022-12-29T09:55:19;4.10;;;2.60;;
10315;SDS011;5203;48.976;8.306;2022-12-29T10:00:39;2.47;;;2.20;;
10315;SDS011;5203;48.976;8.306;2022-12-29T10:03:19;3.83;;;2.97;;
10315;SDS011;5203;48.976;8.306;2022-12-29T10:08:55;2.77;;;2.50;;
10315;SDS011;5203;48.976;8.306;2022-12-29T10:25:49;3.00;;;2.67;;
10315;SDS011;5203;48.976;8.306;2022-12-29T10:28:31;3.00;;;2.70;;
10315;SDS011;5203;48.976;8.306;2022-12-29T10:31:09;2.93;;;2.70;;
10315;SDS011;5203;48.976;8.306;2022-12-29T10:33:57;3.07;;;2.40;;
10315;SDS011;5203;48.976;8.306;2022-12-29T10:36:40;4.13;;;2.73;;
10315;SDS011;5203;48.976;8.306;2022-12-29T10:39:21;2.73;;;2.40;;
10315;SDS011;5203;48.976;8.306;2022-12-29T10:41:49;2.63;;;2.43;;
10315;SDS011;5203;48.976;8.306;2022-12-29T10:44:19;2.73;;;2.53;;
10315;SDS011;5203;48.976;8.306;2022-12-29T10:46:57;2.87;;;2.67;;
10315;SDS011;5203;48.976;8.306;2022-12-29T10:49:27;2.60;;;2.40;;
10315;SDS011;5203;48.976;8.306;2022-12-29T10:51:57;2.67;;;2.47;;
10315;SDS011;5203;48.976;8.306;2022-12-29T10:57:15;2.53;;;2.37;;
10315;SDS011;5203;48.976;8.306;2022-12-29T10:59:42;2.73;;;2.53;;
10315;SDS011;5203;48.976;8.306;2022-12-29T11:07:11;3.10;;;2.83;;
10315;SDS011;5203;48.976;8.306;2022-12-29T11:09:40;3.23;;;2.70;;
10315;SDS011;5203;48.976;8.306;2022-12-29T11:15:11;2.73;;;2.30;;
10315;SDS011;5203;48.976;8.306;2022-12-29T11:20:29;3.47;;;2.50;;
10315;SDS011;5203;48.976;8.306;2022-12-29T11:23:00;3.97;;;2.80;;
10315;SDS011;5203;48.976;8.306;2022-12-29T11:25:27;10.63;;;3.23;;
10315;SDS011;5203;48.976;8.306;2022-12-29T11:27:57;4.33;;;2.90;;
10315;SDS011;5203;48.976;8.306;2022-12-29T11:30:39;3.53;;;2.87;;
10315;SDS011;5203;48.976;8.306;2022-12-29T11:33:05;3.83;;;2.80;;
10315;SDS011;5203;48.976;8.306;2022-12-29T11:37:59;3.40;;;2.57;;
10315;SDS011;5203;48.976;8.306;2022-12-29T11:40:26;3.83;;;2.80;;
10315;SDS011;5203;48.976;8.306;2022-12-29T11:43:02;5.10;;;2.80;;
10315;SDS011;5203;48.976;8.306;2022-12-29T11:45:31;4.17;;;2.70;;
10315;SDS011;5203;48.976;8.306;2022-12-29T11:48:07;3.57;;;2.97;;
10315;SDS011;5203;48.976;8.306;2022-12-29T11:50:36;3.00;;;2.63;;
10315;SDS011;5203;48.976;8.306;2022-12-29T11:53:13;3.47;;;2.63;;
10315;SDS011;5203;48.976;8.306;2022-12-29T11:55:51;4.13;;;2.60;;
10315;SDS011;5203;48.976;8.306;2022-12-29T11:58:17;3.57;;;2.10;;
10315;SDS011;5203;48.976;8.306;2022-12-29T12:00:43;3.20;;;2.63;;
10315;SDS011;5203;48.976;8.306;2022-12-29T12:03:15;4.30;;;2.83;;
10315;SDS011;5203;48.976;8.306;2022-12-29T12:05:49;2.27;;;2.13;;
10315;SDS011;5203;48.976;8.306;2022-12-29T12:11:03;2.00;;;1.90;;
10315;SDS011;5203;48.976;8.306;2022-12-29T12:16:27;1.80;;;1.70;;
10315;SDS011;5203;48.976;8.306;2022-12-29T12:19:02;2.73;;;1.83;;
10315;SDS011;5203;48.976;8.306;2022-12-29T12:21:41;1.90;;;1.80;;
10315;SDS011;5203;48.976;8.306;2022-12-29T12:27:00;1.97;;;1.80;;
10315;SDS011;5203;48.976;8.306;2022-12-29T12:29:56;2.63;;;2.20;;
10315;SDS011;5203;48.976;8.306;2022-12-29T12:35:12;3.40;;;2.20;;
10315;SDS011;5203;48.976;8.306;2022-12-29T12:37:48;2.30;;;2.00;;
10315;SDS011;5203;48.976;8.306;2022-12-29T12:43:21;3.77;;;2.23;;
10315;SDS011;5203;48.976;8.306;2022-12-29T12:54:38;2.87;;;2.47;;
10315;SDS011;5203;48.976;8.306;2022-12-29T13:00:19;2.83;;;1.90;;
10315;SDS011;5203;48.976;8.306;2022-12-29T13:10:48;4.63;;;2.40;;
10315;SDS011;5203;48.976;8.306;2022-12-29T13:16:26;2.80;;;2.13;;
10315;SDS011;5203;48.976;8.306;2022-12-29T13:22:13;2.60;;;2.27;;
10315;SDS011;5203;48.976;8.306;2022-12-29T13:24:57;2.03;;;1.90;;
10315;SDS011;5203;48.976;8.306;2022-12-29T13:27:46;2.43;;;2.23;;
10315;SDS011;5203;48.976;8.306;2022-12-29T13:38:34;3.03;;;1.70;;
10315;SDS011;5203;48.976;8.306;2022-12-29T13:41:08;1.93;;;1.83;;
10315;SDS011;5203;48.976;8.306;2022-12-29T13:43:42;1.87;;;1.67;;
10315;SDS011;5203;48.976;8.306;2022-12-29T13:46:20;1.70;;;1.60;;
10315;SDS011;5203;48.976;8.306;2022-12-29T13:49:32;1.80;;;1.70;;
10315;SDS011;5203;48.976;8.306;2022-12-29T13:51:55;1.70;;;1.60;;
10315;SDS011;5203;48.976;8.306;2022-12-29T13:57:52;2.60;;;1.50;;
10315;SDS011;5203;48.976;8.306;2022-12-29T14:00:26;2.30;;;1.60;;
10315;SDS011;5203;48.976;8.306;2022-12-29T14:05:45;1.80;;;1.70;;
10315;SDS011;5203;48.976;8.306;2022-12-29T14:09:00;2.07;;;1.90;;
10315;SDS011;5203;48.976;8.306;2022-12-29T14:11:40;2.10;;;2.00;;
10315;SDS011;5203;48.976;8.306;2022-12-29T14:14:16;1.70;;;1.60;;
10315;SDS011;5203;48.976;8.306;2022-12-29T14:16:52;1.93;;;1.77;;
10315;SDS011;5203;48.976;8.306;2022-12-29T14:19:29;2.00;;;1.90;;
10315;SDS011;5203;48.976;8.306;2022-12-29T14:22:01;1.70;;;1.60;;
10315;SDS011;5203;48.976;8.306;2022-12-29T14:26:59;1.40;;;1.30;;
10315;SDS011;5203;48.976;8.306;2022-12-29T14:29:46;1.43;;;1.30;;
10315;SDS011;5203;48.976;8.306;2022-12-29T14:37:27;2.30;;;1.40;;
10315;SDS011;5203;48.976;8.306;2022-12-29T14:40:02;2.73;;;1.60;;
10315;SDS011;5203;48.976;8.306;2022-12-29T14:42:49;3.17;;;1.70;;
10315;SDS011;5203;48.976;8.306;2022-12-29T14:47:48;2.33;;;1.70;;
10315;SDS011;5203;48.976;8.306;2022-12-29T14:50:23;2.57;;;1.83;;
10315;SDS011;5203;48.976;8.306;2022-12-29T14:52:58;3.50;;;1.80;;
10315;SDS011;5203;48.976;8.306;2022-12-29T15:00:43;2.33;;;1.90;;
10315;SDS011;5203;48.976;8.306;2022-12-29T15:05:51;3.00;;;1.73;;
10315;SDS011;5203;48.976;8.306;2022-12-29T15:08:20;1.80;;;1.50;;
10315;SDS011;5203;48.976;8.306;2022-12-29T15:13:35;1.90;;;1.80;;
10315;SDS011;5203;48.976;8.306;2022-12-29T15:16:13;2.00;;;1.63;;
10315;SDS011;5203;48.976;8.306;2022-12-29T15:18:45;2.30;;;1.60;;
10315;SDS011;5203;48.976;8.306;2022-12-29T15:21:11;2.90;;;2.00;;
10315;SDS011;5203;48.976;8.306;2022-12-29T15:23:39;1.80;;;1.70;;
10315;SDS011;5203;48.976;8.306;2022-12-29T15:26:09;2.53;;;2.10;;
10315;SDS011;5203;48.976;8.306;2022-12-29T15:33:46;3.10;;;2.23;;
10315;SDS011;5203;48.976;8.306;2022-12-29T15:36:18;3.40;;;2.50;;
10315;SDS011;5203;48.976;8.306;2022-12-29T15:38:45;2.67;;;2.47;;
10315;SDS011;5203;48.976;8.306;2022-12-29T15:44:29;3.13;;;2.60;;
10315;SDS011;5203;48.976;8.306;2022-12-29T15:47:06;3.80;;;2.40;;
10315;SDS011;5203;48.976;8.306;2022-12-29T15:49:41;4.10;;;2.50;;
10315;SDS011;5203;48.976;8.306;2022-12-29T15:52:08;4.70;;;2.67;;
10315;SDS011;5203;48.976;8.306;2022-12-29T15:54:34;5.17;;;2.70;;
10315;SDS011;5203;48.976;8.306;2022-12-29T15:57:01;4.40;;;2.63;;
10315;SDS011;5203;48.976;8.306;2022-12-29T16:01:55;3.63;;;3.27;;
10315;SDS011;5203;48.976;8.306;2022-12-29T16:04:21;3.77;;;3.30;;
10315;SDS011;5203;48.976;8.306;2022-12-29T16:06:59;4.00;;;3.60;;
10315;SDS011;5203;48.976;8.306;2022-12-29T16:12:21;6.03;;;3.73;;
10315;SDS011;5203;48.976;8.306;2022-12-29T16:14:47;4.47;;;4.00;;
10315;SDS011;5203;48.976;8.306;2022-12-29T16:17:20;5.47;;;3.70;;
10315;SDS011;5203;48.976;8.306;2022-12-29T16:20:37;4.70;;;4.30;;
10315;SDS011;5203;48.976;8.306;2022-12-29T16:22:50;5.60;;;3.30;;
10315;SDS011;5203;48.976;8.306;2022-12-29T16:25:30;4.53;;;3.47;;
10315;SDS011;5203;48.976;8.306;2022-12-29T16:27:59;3.70;;;2.90;;
10315;SDS011;5203;48.976;8.306;2022-12-29T16:32:53;3.30;;;3.00;;
10315;SDS011;5203;48.976;8.306;2022-12-29T16:35:28;3.23;;;2.83;;
10315;SDS011;5203;48.976;8.306;2022-12-29T16:38:11;4.00;;;2.80;;
10315;SDS011;5203;48.976;8.306;2022-12-29T16:48:18;3.77;;;3.37;;
10315;SDS011;5203;48.976;8.306;2022-12-29T16:50:46;4.60;;;3.93;;
10315;SDS011;5203;48.976;8.306;2022-12-29T16:53:20;4.10;;;3.70;;
10315;SDS011;5203;48.976;8.306;2022-12-29T16:55:50;3.60;;;3.30;;
10315;SDS011;5203;48.976;8.306;2022-12-29T16:58:24;3.60;;;2.77;;
10315;SDS011;5203;48.976;8.306;2022-12-29T17:00:57;5.13;;;3.03;;
10315;SDS011;5203;48.976;8.306;2022-12-29T17:03:33;4.63;;;3.20;;
10315;SDS011;5203;48.976;8.306;2022-12-29T17:06:04;4.03;;;3.30;;
10315;SDS011;5203;48.976;8.306;2022-12-29T17:08:38;3.57;;;2.87;;
10315;SDS011;5203;48.976;8.306;2022-12-29T17:11:08;5.50;;;3.20;;
10315;SDS011;5203;48.976;8.306;2022-12-29T17:14:49;5.10;;;2.50;;
10315;SDS011;5203;48.976;8.306;2022-12-29T17:17:24;2.93;;;2.20;;
10315;SDS011;5203;48.976;8.306;2022-12-29T17:19:52;3.13;;;2.50;;
10315;SDS011;5203;48.976;8.306;2022-12-29T17:22:21;4.60;;;2.90;;
10315;SDS011;5203;48.976;8.306;2022-12-29T17:24:49;4.43;;;2.80;;
10315;SDS011;5203;48.976;8.306;2022-12-29T17:27:29;4.13;;;2.70;;
10315;SDS011;5203;48.976;8.306;2022-12-29T17:30:03;6.33;;;2.57;;
10315;SDS011;5203;48.976;8.306;2022-12-29T17:32:34;4.17;;;2.20;;
10315;SDS011;5203;48.976;8.306;2022-12-29T17:35:00;3.50;;;2.10;;
10315;SDS011;5203;48.976;8.306;2022-12-29T17:39:56;4.13;;;2.53;;
10315;SDS011;5203;48.976;8.306;2022-12-29T17:42:22;3.93;;;2.33;;
10315;SDS011;5203;48.976;8.306;2022-12-29T17:44:48;2.53;;;2.20;;
10315;SDS011;5203;48.976;8.306;2022-12-29T17:47:13;3.57;;;2.47;;
10315;SDS011;5203;48.976;8.306;2022-12-29T17:49:40;4.80;;;2.47;;
10315;SDS011;5203;48.976;8.306;2022-12-29T17:52:10;3.07;;;2.30;;
10315;SDS011;5203;48.976;8.306;2022-12-29T17:54:41;2.73;;;2.53;;
10315;SDS011;5203;48.976;8.306;2022-12-29T17:57:14;2.53;;;2.10;;
10315;SDS011;5203;48.976;8.306;2022-12-29T17:59:41;2.57;;;1.73;;
10315;SDS011;5203;48.976;8.306;2022-12-29T18:05:02;4.10;;;2.30;;
10315;SDS011;5203;48.976;8.306;2022-12-29T18:07:30;4.70;;;2.03;;
10315;SDS011;5203;48.976;8.306;2022-12-29T18:09:56;3.00;;;2.10;;
10315;SDS011;5203;48.976;8.306;2022-12-29T18:14:53;3.30;;;2.07;;
10315;SDS011;5203;48.976;8.306;2022-12-29T18:17:19;4.00;;;1.93;;
10315;SDS011;5203;48.976;8.306;2022-12-29T18:19:45;4.00;;;2.20;;
10315;SDS011;5203;48.976;8.306;2022-12-29T18:22:10;2.63;;;1.80;;
10315;SDS011;5203;48.976;8.306;2022-12-29T18:24:36;3.67;;;1.93;;
10315;SDS011;5203;48.976;8.306;2022-12-29T18:27:09;3.60;;;2.10;;